createdAt,value
2018-03-25T00:01:38.802Z,32.10
2018-03-25T00:04:06.252Z,33.50
2018-03-25T00:06:33.731Z,36.80
2018-03-25T00:09:01.184Z,27.75
2018-03-25T00:11:28.639Z,25.40
2018-03-25T00:13:56.102Z,32.33
2018-03-25T00:16:23.606Z,34.28
2018-03-25T00:18:51.066Z,31.52
2018-03-25T00:21:18.532Z,30.48
2018-03-25T00:23:45.984Z,28.40
2018-03-25T00:26:14.219Z,36.28
2018-03-25T00:28:42.440Z,33.22
2018-03-25T00:31:09.923Z,32.17
2018-03-25T00:33:37.387Z,31.87
2018-03-25T00:36:05.646Z,32.30
2018-03-25T00:38:33.108Z,29.37
2018-03-25T00:41:00.586Z,34.88
2018-03-25T00:43:28.039Z,31.55
2018-03-25T00:45:55.494Z,30.42
2018-03-25T00:48:22.954Z,32.60
2018-03-25T00:50:50.446Z,33.63
2018-03-25T00:53:17.893Z,35.60
2018-03-25T00:55:46.121Z,33.97
2018-03-25T00:58:13.581Z,31.23
2018-03-25T01:00:41.037Z,29.33
2018-03-25T01:03:08.490Z,38.05
2018-03-25T01:05:36.719Z,39.30
2018-03-25T01:08:04.943Z,29.65
2018-03-25T01:10:32.415Z,27.17
2018-03-25T01:12:59.874Z,25.67
2018-03-25T01:18:22.913Z,28.45
2018-03-25T01:20:50.362Z,26.25
2018-03-25T01:23:17.838Z,31.52
2018-03-25T01:25:45.285Z,26.02
2018-03-25T01:28:12.752Z,25.52
2018-03-25T01:30:40.209Z,27.40
2018-03-25T01:33:07.664Z,25.33
2018-03-25T01:35:35.131Z,35.00
2018-03-25T01:38:02.598Z,31.85
2018-03-25T01:40:30.064Z,33.20
2018-03-25T01:42:57.539Z,34.95
2018-03-25T01:45:25.762Z,30.48
2018-03-25T01:47:53.231Z,35.47
2018-03-25T01:50:20.685Z,31.27
2018-03-25T01:52:48.142Z,27.23
2018-03-25T01:55:15.594Z,26.50
2018-03-25T01:57:43.053Z,25.33
2018-03-25T02:00:10.520Z,27.48
2018-03-25T02:02:37.986Z,25.00
2018-03-25T02:05:05.446Z,27.65
2018-03-25T02:07:32.905Z,26.35
2018-03-25T02:10:00.372Z,28.83
2018-03-25T02:12:27.833Z,31.25
2018-03-25T02:14:56.084Z,35.17
2018-03-25T02:17:23.532Z,30.98
2018-03-25T02:19:51.036Z,27.60
2018-03-25T02:22:18.867Z,28.70
2018-03-25T02:24:46.321Z,38.03
2018-03-25T02:27:13.786Z,32.95
2018-03-25T02:29:41.247Z,26.45
2018-03-25T02:32:08.709Z,30.23
2018-03-25T02:34:36.175Z,30.90
2018-03-25T02:37:04.403Z,23.05
2018-03-25T02:39:31.854Z,35.80
2018-03-25T02:41:59.312Z,31.48
2018-03-25T02:44:26.775Z,21.37
2018-03-25T02:46:54.231Z,27.50
2018-03-25T02:49:21.694Z,25.98
2018-03-25T02:51:49.923Z,30.92
2018-03-25T02:54:18.150Z,29.73
2018-03-25T02:56:45.613Z,32.15
2018-03-25T02:59:13.057Z,34.55
2018-03-25T03:01:40.514Z,34.85
2018-03-25T03:04:07.973Z,32.72
2018-03-25T03:06:35.435Z,37.22
2018-03-25T03:09:02.893Z,31.87
2018-03-25T03:11:30.351Z,30.70
2018-03-25T03:13:57.804Z,29.83
2018-03-25T03:16:25.458Z,29.63
2018-03-25T03:18:53.727Z,26.20
2018-03-25T03:21:21.187Z,31.85
2018-03-25T03:23:48.627Z,33.90
2018-03-25T03:26:16.479Z,37.50
2018-03-25T03:28:43.946Z,39.78
2018-03-25T03:31:11.395Z,36.70
2018-03-25T03:33:38.859Z,31.23
2018-03-25T03:36:06.323Z,33.25
2018-03-25T03:38:33.783Z,35.05
2018-03-25T03:41:01.234Z,35.17
2018-03-25T03:43:28.698Z,32.78
2018-03-25T03:45:56.166Z,35.58
2018-03-25T03:48:23.629Z,36.22
2018-03-25T03:50:51.090Z,35.63
2018-03-25T03:53:18.570Z,31.23
2018-03-25T03:55:46.035Z,32.85
2018-03-25T03:58:14.271Z,29.73
2018-03-25T04:00:41.721Z,30.17
2018-03-25T04:03:09.170Z,32.80
2018-03-25T04:05:36.634Z,34.80
2018-03-25T04:08:04.093Z,30.88
2018-03-25T04:10:31.557Z,31.42
2018-03-25T04:12:59.019Z,31.80
2018-03-25T04:15:26.478Z,27.67
2018-03-25T04:17:53.942Z,27.77
2018-03-25T04:20:21.408Z,32.15
2018-03-25T04:22:48.873Z,30.52
2018-03-25T04:25:17.097Z,25.80
2018-03-25T04:27:44.586Z,29.30
2018-03-25T04:30:12.045Z,28.52
2018-03-25T04:32:39.493Z,30.15
2018-03-25T04:35:06.939Z,27.52
2018-03-25T04:37:34.389Z,35.40
2018-03-25T04:40:01.838Z,31.40
2018-03-25T04:42:29.310Z,30.37
2018-03-25T04:44:56.770Z,36.38
2018-03-25T04:47:24.845Z,32.08
2018-03-25T04:49:52.305Z,27.00
2018-03-25T04:52:19.766Z,31.50
2018-03-25T04:54:47.226Z,32.15
2018-03-25T04:57:14.699Z,31.10
2018-03-25T04:59:42.930Z,24.00
2018-03-25T05:02:10.387Z,33.00
2018-03-25T05:04:37.847Z,43.22
2018-03-25T05:07:05.319Z,28.60
2018-03-25T05:09:32.798Z,29.77
2018-03-25T05:12:00.251Z,38.13
2018-03-25T05:14:27.714Z,50.30
2018-03-25T05:16:55.179Z,38.25
2018-03-25T05:19:23.407Z,28.80
2018-03-25T05:21:50.878Z,30.75
2018-03-25T05:24:18.337Z,23.08
2018-03-25T05:26:45.806Z,27.92
2018-03-25T05:29:13.671Z,23.85
2018-03-25T05:31:41.150Z,30.25
2018-03-25T05:34:09.450Z,26.00
2018-03-25T05:36:36.859Z,26.35
2018-03-25T05:39:05.242Z,29.50
2018-03-25T05:41:32.711Z,35.45
2018-03-25T05:44:00.949Z,29.67
2018-03-25T05:46:28.415Z,31.58
2018-03-25T05:48:55.879Z,32.92
2018-03-25T05:51:23.336Z,34.63
2018-03-25T05:53:50.814Z,31.92
2018-03-25T05:56:19.048Z,29.92
2018-03-25T05:58:47.275Z,31.60
2018-03-25T06:01:15.541Z,27.05
2018-03-25T06:03:43.741Z,31.87
2018-03-25T06:06:11.189Z,30.27
2018-03-25T06:08:38.659Z,29.08
2018-03-25T06:11:06.122Z,29.50
2018-03-25T06:13:33.632Z,30.52
2018-03-25T06:16:01.051Z,28.25
2018-03-25T06:18:28.507Z,29.42
2018-03-25T06:20:56.331Z,34.75
2018-03-25T06:23:24.587Z,34.90
2018-03-25T06:25:52.010Z,30.02
2018-03-25T06:28:19.657Z,29.63
2018-03-25T06:30:47.127Z,39.72
2018-03-25T06:33:14.578Z,42.60
2018-03-25T06:35:42.038Z,38.28
2018-03-25T06:38:09.499Z,36.55
2018-03-25T06:40:36.957Z,44.50
2018-03-25T06:43:04.810Z,41.80
2018-03-25T06:45:32.273Z,34.85
2018-03-25T06:47:59.735Z,35.55
2018-03-25T06:50:27.192Z,26.73
2018-03-25T06:52:54.647Z,21.40
2018-03-25T06:55:22.106Z,25.67
2018-03-25T06:57:49.565Z,27.15
2018-03-25T07:00:17.029Z,27.90
2018-03-25T07:02:46.002Z,21.08
2018-03-25T07:05:13.458Z,19.75
2018-03-25T07:07:41.681Z,24.75
2018-03-25T07:10:09.912Z,23.58
2018-03-25T07:12:37.387Z,22.87
2018-03-25T07:15:04.856Z,29.12
2018-03-25T07:17:32.310Z,29.73
2018-03-25T07:19:59.778Z,23.40
2018-03-25T07:22:27.296Z,26.70
2018-03-25T07:24:55.470Z,23.77
2018-03-25T07:27:22.927Z,18.90
2018-03-25T07:29:50.379Z,23.30
2018-03-25T07:32:17.852Z,19.17
2018-03-25T07:34:45.305Z,20.13
2018-03-25T07:37:12.765Z,18.47
2018-03-25T07:39:40.221Z,20.47
2018-03-25T07:42:07.681Z,15.90
2018-03-25T07:44:35.146Z,20.80
2018-03-25T07:47:02.598Z,19.83
2018-03-25T07:49:30.071Z,17.70
2018-03-25T07:51:57.538Z,16.77
2018-03-25T07:54:28.425Z,18.37
2018-03-25T07:56:55.878Z,16.83
2018-03-25T07:59:23.338Z,14.80
2018-03-25T08:01:50.795Z,16.60
2018-03-25T08:04:18.251Z,18.50
2018-03-25T08:06:45.708Z,19.40
2018-03-25T08:09:13.227Z,16.37
2018-03-25T08:11:40.650Z,16.20
2018-03-25T08:14:08.114Z,14.20
2018-03-25T08:16:35.567Z,14.33
2018-03-25T08:19:03.030Z,14.97
2018-03-25T08:21:30.498Z,13.77
2018-03-25T08:23:57.960Z,19.70
2018-03-25T08:26:26.192Z,12.70
2018-03-25T08:28:53.668Z,15.37
2018-03-25T08:31:21.123Z,14.10
2018-03-25T08:33:48.645Z,11.53
2018-03-25T08:36:16.416Z,12.60
2018-03-25T08:38:43.873Z,17.90
2018-03-25T08:41:12.107Z,18.30
2018-03-25T08:43:40.330Z,13.20
2018-03-25T08:46:07.803Z,28.80
2018-03-25T08:48:35.271Z,12.77
2018-03-25T08:51:02.732Z,15.20
2018-03-25T08:53:30.181Z,13.33
2018-03-25T08:55:57.649Z,15.20
2018-03-25T08:58:25.094Z,20.60
2018-03-25T09:00:52.556Z,10.33
2018-03-25T09:03:20.015Z,12.73
2018-03-25T09:05:47.481Z,15.17
2018-03-25T09:08:14.933Z,15.57
2018-03-25T09:10:42.401Z,16.60
2018-03-25T09:13:10.626Z,9.53
2018-03-25T09:15:38.102Z,12.10
2018-03-25T09:18:05.582Z,11.80
2018-03-25T09:20:33.037Z,16.20
2018-03-25T09:23:00.484Z,14.93
2018-03-25T09:25:27.959Z,13.70
2018-03-25T09:27:55.410Z,12.80
2018-03-25T09:30:22.874Z,17.63
2018-03-25T09:32:54.469Z,18.20
2018-03-25T09:35:21.937Z,13.20
2018-03-25T09:37:49.398Z,11.27
2018-03-25T09:40:16.847Z,15.40
2018-03-25T09:42:44.313Z,20.93
2018-03-25T09:45:12.164Z,19.50
2018-03-25T09:47:40.396Z,21.23
2018-03-25T09:50:08.625Z,21.33
2018-03-25T09:52:36.091Z,26.30
2018-03-25T09:55:03.543Z,20.90
2018-03-25T09:57:31.019Z,18.03
2018-03-25T09:59:58.486Z,22.17
2018-03-25T10:02:26.831Z,16.10
2018-03-25T10:04:54.285Z,16.80
2018-03-25T10:07:21.753Z,18.10
2018-03-25T10:09:49.209Z,17.00
2018-03-25T10:12:16.666Z,17.83
2018-03-25T10:14:44.126Z,20.30
2018-03-25T10:17:11.585Z,20.53
2018-03-25T10:19:39.057Z,16.57
2018-03-25T10:22:06.527Z,20.03
2018-03-25T10:24:33.986Z,20.33
2018-03-25T10:27:02.211Z,14.80
2018-03-25T10:29:29.671Z,15.50
2018-03-25T10:31:57.121Z,18.17
2018-03-25T10:34:24.592Z,17.63
2018-03-25T10:36:52.060Z,18.97
2018-03-25T10:39:19.509Z,14.43
2018-03-25T10:41:46.979Z,21.23
2018-03-25T10:44:14.430Z,18.27
2018-03-25T10:46:41.912Z,14.90
2018-03-25T10:49:10.127Z,18.57
2018-03-25T10:51:37.590Z,18.47
2018-03-25T10:54:05.049Z,17.10
2018-03-25T10:56:32.523Z,18.63
2018-03-25T10:58:59.989Z,17.80
2018-03-25T11:01:27.466Z,16.70
2018-03-25T11:03:54.910Z,21.73
2018-03-25T11:06:22.370Z,14.80
2018-03-25T11:08:49.847Z,17.37
2018-03-25T11:11:18.073Z,14.30
2018-03-25T11:13:45.522Z,13.57
2018-03-25T11:16:13.008Z,12.43
2018-03-25T11:18:40.462Z,13.87
2018-03-25T11:21:07.913Z,12.47
2018-03-25T11:23:35.369Z,19.40
2018-03-25T11:26:02.829Z,15.93
2018-03-25T11:28:30.297Z,21.40
2018-03-25T11:30:57.760Z,13.93
2018-03-25T11:33:25.216Z,18.37
2018-03-25T11:35:52.718Z,16.80
2018-03-25T11:38:20.338Z,14.10
2018-03-25T11:40:47.871Z,13.87
2018-03-25T11:43:15.449Z,12.03
2018-03-25T11:45:43.766Z,10.67
2018-03-25T11:48:11.331Z,11.67
2018-03-25T11:50:38.844Z,11.73
2018-03-25T11:53:06.354Z,13.50
2018-03-25T11:55:33.889Z,12.93
2018-03-25T11:58:01.449Z,13.03
2018-03-25T12:00:29.010Z,13.10
2018-03-25T12:02:56.553Z,12.60
2018-03-25T12:05:24.040Z,9.83
2018-03-25T12:07:51.496Z,14.27
2018-03-25T12:10:18.959Z,13.90
2018-03-25T12:12:46.415Z,13.50
2018-03-25T12:15:13.879Z,13.37
2018-03-25T12:17:41.348Z,15.87
2018-03-25T12:20:08.796Z,11.30
2018-03-25T12:22:36.268Z,13.23
2018-03-25T12:25:03.722Z,13.17
2018-03-25T12:27:31.189Z,11.97
2018-03-25T12:29:58.810Z,15.77
2018-03-25T12:32:26.263Z,13.70
2018-03-25T12:34:53.723Z,17.10
2018-03-25T12:37:21.955Z,14.60
2018-03-25T12:39:49.410Z,13.30
2018-03-25T12:42:16.878Z,16.83
2018-03-25T12:44:44.369Z,13.07
2018-03-25T12:47:12.569Z,15.97
2018-03-25T12:49:40.022Z,10.97
2018-03-25T12:52:07.487Z,13.13
2018-03-25T12:54:34.959Z,14.20
2018-03-25T12:57:02.419Z,12.80
2018-03-25T12:59:29.874Z,25.80
2018-03-25T13:01:57.330Z,11.90
2018-03-25T13:04:24.790Z,14.50
2018-03-25T13:06:52.271Z,13.00
2018-03-25T13:09:20.501Z,11.07
2018-03-25T13:11:47.987Z,13.13
2018-03-25T13:14:15.437Z,12.53
2018-03-25T13:16:42.901Z,12.97
2018-03-25T13:19:10.350Z,10.90
2018-03-25T13:21:37.801Z,13.27
2018-03-25T13:24:06.026Z,21.37
2018-03-25T13:26:33.494Z,14.00
2018-03-25T13:29:00.942Z,12.53
2018-03-25T13:31:28.390Z,14.23
2018-03-25T13:33:55.850Z,14.90
2018-03-25T13:36:24.067Z,11.50
2018-03-25T13:38:51.521Z,18.07
2018-03-25T13:41:18.985Z,11.87
2018-03-25T13:43:46.443Z,13.00
2018-03-25T13:46:13.898Z,10.40
2018-03-25T13:48:41.362Z,12.70
2018-03-25T13:51:09.582Z,12.77
2018-03-25T13:53:37.050Z,11.77
2018-03-25T13:56:04.500Z,13.83
2018-03-25T13:58:31.978Z,11.53
2018-03-25T14:00:59.450Z,13.47
2018-03-25T14:03:26.893Z,9.80
2018-03-25T14:05:54.399Z,15.83
2018-03-25T14:08:21.872Z,14.87
2018-03-25T14:10:49.307Z,10.30
2018-03-25T14:13:16.787Z,9.90
2018-03-25T14:15:45.006Z,11.03
2018-03-25T14:18:12.462Z,10.37
2018-03-25T14:20:39.921Z,12.77
2018-03-25T14:23:07.403Z,12.20
2018-03-25T14:25:34.831Z,13.53
2018-03-25T14:28:02.279Z,11.10
2018-03-25T14:30:29.736Z,10.50
2018-03-25T14:32:57.193Z,11.17
2018-03-25T14:35:24.667Z,16.53
2018-03-25T14:37:52.128Z,13.70
2018-03-25T14:40:19.587Z,16.87
2018-03-25T14:42:47.046Z,11.07
2018-03-25T14:45:14.501Z,11.70
2018-03-25T14:47:41.967Z,10.30
2018-03-25T14:50:09.427Z,15.13
2018-03-25T14:52:36.886Z,14.30
2018-03-25T14:55:04.341Z,12.07
2018-03-25T14:57:31.822Z,11.20
2018-03-25T15:00:00.033Z,11.60
2018-03-25T15:02:27.493Z,11.67
2018-03-25T15:04:55.723Z,12.60
2018-03-25T15:07:23.180Z,13.90
2018-03-25T15:09:51.410Z,13.27
2018-03-25T15:12:18.925Z,12.83
2018-03-25T15:14:46.333Z,13.30
2018-03-25T15:17:13.781Z,14.53
2018-03-25T15:19:41.276Z,11.80
2018-03-25T15:22:08.688Z,15.50
2018-03-25T15:24:36.138Z,11.03
2018-03-25T15:27:03.602Z,12.33
2018-03-25T15:29:31.050Z,12.40
2018-03-25T15:31:58.512Z,15.10
2018-03-25T15:34:25.968Z,12.97
2018-03-25T15:36:53.427Z,15.57
2018-03-25T15:39:20.897Z,11.17
2018-03-25T15:41:48.342Z,14.20
2018-03-25T15:44:15.834Z,13.93
2018-03-25T15:46:43.290Z,15.37
2018-03-25T15:49:10.750Z,15.43
2018-03-25T15:51:38.978Z,13.70
2018-03-25T15:54:06.443Z,11.47
2018-03-25T15:56:33.900Z,11.33
2018-03-25T15:59:01.364Z,15.93
2018-03-25T16:01:28.819Z,22.60
2018-03-25T16:03:56.286Z,19.97
2018-03-25T16:06:23.759Z,17.37
2018-03-25T16:08:51.227Z,17.80
2018-03-25T16:11:18.680Z,14.73
2018-03-25T16:13:46.144Z,11.53
2018-03-25T16:16:14.379Z,14.30
2018-03-25T16:18:41.829Z,14.93
2018-03-25T16:21:09.299Z,14.40
2018-03-25T16:23:36.746Z,13.20
2018-03-25T16:26:04.205Z,15.40
2018-03-25T16:28:31.654Z,16.13
2018-03-25T16:30:59.131Z,15.60
2018-03-25T16:33:26.581Z,12.63
2018-03-25T16:35:54.090Z,13.90
2018-03-25T16:38:21.556Z,15.83
2018-03-25T16:40:49.010Z,14.23
2018-03-25T16:43:16.473Z,14.27
2018-03-25T16:45:43.938Z,14.80
2018-03-25T16:48:11.394Z,13.90
2018-03-25T16:50:38.861Z,13.80
2018-03-25T16:53:06.318Z,21.43
2018-03-25T16:55:33.771Z,14.70
2018-03-25T16:58:01.223Z,16.03
2018-03-25T17:00:28.687Z,13.90
2018-03-25T17:02:56.141Z,17.73
2018-03-25T17:05:23.601Z,15.23
2018-03-25T17:07:51.060Z,15.50
2018-03-25T17:10:18.518Z,12.20
2018-03-25T17:12:45.971Z,11.10
2018-03-25T17:15:13.485Z,15.33
2018-03-25T17:17:41.419Z,12.97
2018-03-25T17:20:08.873Z,19.27
2018-03-25T17:22:36.326Z,14.90
2018-03-25T17:25:03.834Z,13.40
2018-03-25T17:27:32.067Z,11.30
2018-03-25T17:29:59.559Z,10.53
2018-03-25T17:32:27.793Z,20.30
2018-03-25T17:34:55.249Z,29.90
2018-03-25T17:37:22.707Z,15.87
2018-03-25T17:39:50.158Z,11.70
2018-03-25T17:42:17.617Z,21.60
2018-03-25T17:44:45.094Z,11.13
2018-03-25T17:47:12.549Z,11.03
2018-03-25T17:49:40.026Z,15.53
2018-03-25T17:52:08.251Z,18.60
2018-03-25T17:54:35.713Z,21.70
2018-03-25T17:57:03.188Z,12.20
2018-03-25T17:59:30.659Z,11.67
2018-03-25T18:01:58.210Z,27.77
2018-03-25T18:04:26.532Z,39.70
2018-03-25T18:06:54.080Z,23.33
2018-03-25T18:09:21.635Z,26.30
2018-03-25T18:11:49.174Z,44.53
2018-03-25T18:14:16.749Z,41.83
2018-03-25T18:16:44.281Z,31.23
2018-03-25T18:19:12.570Z,12.23
2018-03-25T18:21:40.885Z,21.20
2018-03-25T18:24:08.445Z,21.73
2018-03-25T18:26:36.001Z,26.93
2018-03-25T18:29:03.527Z,18.30
2018-03-25T18:31:31.086Z,14.70
2018-03-25T18:33:58.587Z,21.93
2018-03-25T18:36:26.128Z,15.87
2018-03-25T18:38:53.618Z,14.73
2018-03-25T18:41:21.150Z,15.70
2018-03-25T18:43:48.656Z,12.63
2018-03-25T18:46:16.933Z,14.07
2018-03-25T18:48:45.260Z,18.50
2018-03-25T18:51:12.737Z,12.27
2018-03-25T18:53:40.190Z,11.70
2018-03-25T18:56:07.654Z,12.17
2018-03-25T18:58:36.006Z,13.17
2018-03-25T19:01:03.472Z,16.97
2018-03-25T19:03:30.924Z,15.50
2018-03-25T19:05:58.387Z,18.00
2018-03-25T19:08:25.842Z,19.87
2018-03-25T19:10:53.301Z,17.30
2018-03-25T19:13:20.752Z,15.67
2018-03-25T19:15:48.208Z,19.67
2018-03-25T19:18:15.682Z,16.73
2018-03-25T19:20:43.150Z,18.13
2018-03-25T19:23:11.010Z,17.83
2018-03-25T19:25:38.481Z,15.87
2018-03-25T19:28:05.935Z,22.63
2018-03-25T19:30:33.415Z,24.83
2018-03-25T19:33:00.872Z,121.73
2018-03-25T19:35:29.333Z,52.37
2018-03-25T19:37:56.781Z,50.77
2018-03-25T19:40:24.242Z,51.97
2018-03-25T19:42:51.694Z,55.97
2018-03-25T19:45:19.168Z,68.23
2018-03-25T19:47:46.646Z,45.83
2018-03-25T19:50:14.896Z,26.13
2018-03-25T19:52:42.374Z,19.73
2018-03-25T19:55:10.609Z,17.83
2018-03-25T19:57:38.082Z,20.90
2018-03-25T20:00:05.538Z,18.80
2018-03-25T20:02:32.992Z,16.90
2018-03-25T20:05:00.462Z,22.80
2018-03-25T20:07:27.920Z,16.30
2018-03-25T20:09:56.886Z,14.83
2018-03-25T20:12:24.347Z,18.23
2018-03-25T20:14:51.809Z,22.03
2018-03-25T20:17:19.270Z,22.30
2018-03-25T20:19:46.735Z,12.90
2018-03-25T20:22:14.194Z,20.47
2018-03-25T20:24:41.642Z,17.20
2018-03-25T20:27:09.102Z,20.13
2018-03-25T20:29:36.578Z,21.70
2018-03-25T20:32:04.811Z,23.02
2018-03-25T20:34:32.283Z,25.45
2018-03-25T20:36:59.754Z,23.67
2018-03-25T20:39:27.290Z,20.77
2018-03-25T20:41:54.741Z,34.70
2018-03-25T20:44:22.210Z,31.10
2018-03-25T20:46:49.677Z,55.87
2018-03-25T20:49:17.148Z,36.58
2018-03-25T20:51:45.379Z,38.40
2018-03-25T20:54:13.613Z,53.60
2018-03-25T20:56:41.086Z,25.17
2018-03-25T20:59:08.545Z,28.67
2018-03-25T21:01:36.009Z,39.20
2018-03-25T21:04:03.466Z,50.53
2018-03-25T21:06:30.936Z,67.95
2018-03-25T21:08:58.399Z,130.52
2018-03-25T21:11:26.279Z,94.25
2018-03-25T21:13:53.735Z,57.13
2018-03-25T21:16:21.193Z,35.75
2018-03-25T21:18:48.667Z,125.20
2018-03-25T21:21:16.131Z,152.90
2018-03-25T21:23:44.359Z,116.03
2018-03-25T21:26:11.822Z,122.70
2018-03-25T21:28:39.300Z,41.17
2018-03-25T21:31:06.794Z,28.90
2018-03-25T21:33:34.280Z,21.75
2018-03-25T21:36:01.761Z,15.82
2018-03-25T21:38:29.219Z,16.08
2018-03-25T21:40:56.680Z,12.93
2018-03-25T21:43:24.121Z,15.63
2018-03-25T21:45:51.586Z,13.30
2018-03-25T21:48:19.720Z,17.58
2018-03-25T21:50:47.177Z,25.08
2018-03-25T21:53:14.717Z,79.95
2018-03-25T21:55:42.949Z,74.70
2018-03-25T21:58:10.404Z,42.55
2018-03-25T22:00:37.874Z,28.48
2018-03-25T22:03:06.103Z,30.20
2018-03-25T22:05:33.574Z,24.95
2018-03-25T22:08:01.040Z,22.08
2018-03-25T22:10:28.501Z,24.02
2018-03-25T22:12:55.959Z,20.55
2018-03-25T22:15:23.420Z,20.60
2018-03-25T22:17:50.875Z,15.80
2018-03-25T22:20:18.352Z,21.42
2018-03-25T22:22:45.805Z,31.37
2018-03-25T22:25:13.269Z,19.85
2018-03-25T22:27:40.719Z,16.55
2018-03-25T22:30:08.192Z,23.10
2018-03-25T22:32:35.644Z,16.52
2018-03-25T22:35:03.207Z,19.30
2018-03-25T22:37:30.659Z,22.48
2018-03-25T22:39:58.113Z,20.25
2018-03-25T22:42:25.575Z,27.00
2018-03-25T22:44:53.025Z,22.77
2018-03-25T22:47:20.485Z,19.05
2018-03-25T22:49:47.948Z,14.07
2018-03-25T22:52:15.405Z,15.80
2018-03-25T22:54:43.634Z,13.62
2018-03-25T22:57:11.097Z,18.73
2018-03-25T22:59:38.581Z,14.00
2018-03-25T23:02:06.016Z,14.63
2018-03-25T23:04:33.468Z,12.15
2018-03-25T23:07:00.922Z,17.92
2018-03-25T23:09:28.365Z,9.93
2018-03-25T23:11:55.878Z,13.07
2018-03-25T23:14:24.107Z,15.30
2018-03-25T23:16:51.560Z,16.58
2018-03-25T23:19:19.015Z,20.83
2018-03-25T23:21:46.483Z,20.77
2018-03-25T23:24:13.981Z,15.85
2018-03-25T23:26:41.398Z,16.05
2018-03-25T23:29:08.858Z,20.23
2018-03-25T23:31:36.315Z,20.37
2018-03-25T23:34:03.763Z,17.05
2018-03-25T23:36:31.222Z,20.85
2018-03-25T23:38:58.674Z,16.08
2018-03-25T23:41:26.142Z,14.18
2018-03-25T23:43:53.598Z,13.60
2018-03-25T23:46:21.823Z,13.85
2018-03-25T23:48:50.068Z,15.50
2018-03-25T23:51:17.533Z,19.25
2018-03-25T23:53:44.983Z,20.25
2018-03-25T23:56:12.438Z,30.10
2018-03-25T23:58:39.902Z,31.20
